createdAt,value
2022-12-08T00:01:14.504Z,-0.17
2022-12-08T00:05:35.156Z,-0.09
2022-12-08T00:09:40.584Z,-0.00
2022-12-08T00:13:42.957Z,0.04
2022-12-08T00:17:44.818Z,0.04
2022-12-08T00:21:46.947Z,0.02
2022-12-08T00:25:48.843Z,0.01
2022-12-08T00:29:50.704Z,0.02
2022-12-08T00:33:52.664Z,0.03
2022-12-08T00:38:00.462Z,0.05
2022-12-08T00:42:11.879Z,0.06
2022-12-08T00:46:13.822Z,0.07
2022-12-08T00:50:15.841Z,0.09
2022-12-08T00:54:18.284Z,0.10
2022-12-08T00:58:20.161Z,0.11
2022-12-08T01:02:22.394Z,0.11
2022-12-08T01:06:24.354Z,0.13
2022-12-08T01:10:26.227Z,0.17
2022-12-08T01:14:28.192Z,0.21
2022-12-08T01:18:31.000Z,0.23
2022-12-08T01:22:35.505Z,0.26
2022-12-08T01:26:37.383Z,0.27
2022-12-08T01:30:39.466Z,0.25
2022-12-08T01:34:41.374Z,0.26
2022-12-08T01:38:43.314Z,0.27
2022-12-08T01:42:45.241Z,0.30
2022-12-08T01:46:48.359Z,0.32
2022-12-08T01:50:53.753Z,0.33
2022-12-08T01:55:08.143Z,0.32
2022-12-08T01:59:11.408Z,0.31
2022-12-08T02:03:19.651Z,0.30
2022-12-08T02:07:22.789Z,0.31
2022-12-08T02:11:24.659Z,0.32
2022-12-08T02:15:52.912Z,0.35
2022-12-08T02:20:25.065Z,0.35
2022-12-08T02:24:38.529Z,0.31
2022-12-08T02:28:58.476Z,0.28
2022-12-08T02:33:29.604Z,0.26
2022-12-08T02:37:38.714Z,0.23
2022-12-08T02:42:01.211Z,0.20
2022-12-08T02:46:10.244Z,0.12
2022-12-08T02:50:12.630Z,0.06
2022-12-08T02:54:15.021Z,0.03
2022-12-08T02:58:46.446Z,0.01
2022-12-08T03:03:07.196Z,0.01
2022-12-08T03:07:14.510Z,-0.02
2022-12-08T03:11:19.853Z,-0.07
2022-12-08T03:15:22.212Z,-0.10
2022-12-08T03:19:29.314Z,-0.09
2022-12-08T03:23:33.186Z,-0.09
2022-12-08T03:27:35.377Z,-0.10
2022-12-08T03:31:41.450Z,-0.17
2022-12-08T03:35:44.969Z,-0.26
2022-12-08T03:39:47.393Z,-0.34
2022-12-08T03:43:52.855Z,-0.40
2022-12-08T03:47:55.355Z,-0.43
2022-12-08T03:51:57.295Z,-0.43
2022-12-08T03:55:59.223Z,-0.44
2022-12-08T04:00:01.558Z,-0.49
2022-12-08T04:04:03.770Z,-0.56
2022-12-08T04:08:05.817Z,-0.65
2022-12-08T04:12:08.601Z,-0.76
2022-12-08T04:16:36.936Z,-0.83
2022-12-08T04:20:43.117Z,-0.85
2022-12-08T04:24:44.986Z,-0.84
2022-12-08T04:28:46.927Z,-0.83
2022-12-08T04:32:48.766Z,-0.85
2022-12-08T04:36:50.701Z,-0.89
2022-12-08T04:40:52.669Z,-0.95
2022-12-08T04:44:54.748Z,-0.98
2022-12-08T04:48:56.610Z,-0.97
2022-12-08T04:52:58.538Z,-0.94
2022-12-08T04:57:00.388Z,-0.90
2022-12-08T05:01:02.410Z,-0.88
2022-12-08T05:05:04.939Z,-0.88
2022-12-08T05:09:07.289Z,-0.91
2022-12-08T05:13:09.161Z,-0.97
2022-12-08T05:17:11.050Z,-0.99
2022-12-08T05:21:12.951Z,-0.99
2022-12-08T05:25:14.910Z,-0.95
2022-12-08T05:29:16.848Z,-0.89
2022-12-08T05:33:18.891Z,-0.86
2022-12-08T05:37:20.936Z,-0.86
2022-12-08T05:41:23.455Z,-0.90
2022-12-08T05:45:25.476Z,-0.96
2022-12-08T05:49:27.409Z,-1.00
2022-12-08T05:53:29.446Z,-1.02
2022-12-08T05:57:31.307Z,-1.00
2022-12-08T06:01:33.248Z,-0.95
2022-12-08T06:05:35.638Z,-0.90
2022-12-08T06:09:37.712Z,-0.86
2022-12-08T06:13:39.686Z,-0.87
2022-12-08T06:17:41.625Z,-0.88
2022-12-08T06:21:43.681Z,-0.91
2022-12-08T06:25:46.008Z,-0.97
2022-12-08T06:29:48.184Z,-1.00
2022-12-08T06:33:50.712Z,-0.99
2022-12-08T06:37:52.577Z,-0.94
2022-12-08T06:42:13.241Z,-0.90
2022-12-08T06:46:18.016Z,-0.96
2022-12-08T06:50:20.030Z,-0.99
2022-12-08T06:54:21.948Z,-1.02
2022-12-08T06:58:23.798Z,-1.06
2022-12-08T07:02:25.757Z,-1.09
2022-12-08T07:06:27.931Z,-1.06
2022-12-08T07:10:29.861Z,-1.01
2022-12-08T07:14:31.738Z,-0.96
2022-12-08T07:18:34.253Z,-0.92
2022-12-08T07:22:36.166Z,-0.88
2022-12-08T07:26:38.060Z,-0.88
2022-12-08T07:30:40.081Z,-0.91
2022-12-08T07:34:42.155Z,-0.91
2022-12-08T07:38:44.057Z,-0.89
2022-12-08T07:42:45.929Z,-0.85
2022-12-08T07:46:47.800Z,-0.81
2022-12-08T07:50:49.732Z,-0.74
2022-12-08T07:54:51.774Z,-0.68
2022-12-08T07:58:53.730Z,-0.67
2022-12-08T08:02:55.708Z,-0.59
2022-12-08T08:06:59.926Z,-0.45
2022-12-08T08:11:15.754Z,-0.28
2022-12-08T08:15:21.818Z,-0.15
2022-12-08T08:19:23.737Z,-0.11
2022-12-08T08:23:25.898Z,-0.13
2022-12-08T08:27:27.751Z,-0.14
2022-12-08T08:31:29.806Z,-0.10
2022-12-08T08:35:33.749Z,-0.06
2022-12-08T08:39:36.554Z,0.00
2022-12-08T08:43:39.065Z,0.04
2022-12-08T08:47:41.054Z,0.06
2022-12-08T08:51:43.383Z,0.04
2022-12-08T08:55:45.861Z,0.06
2022-12-08T08:59:47.744Z,0.11
2022-12-08T09:03:50.204Z,0.20
2022-12-08T09:07:52.206Z,0.28
2022-12-08T09:11:55.175Z,0.36
2022-12-08T09:15:57.221Z,0.41
2022-12-08T09:20:00.657Z,0.43
2022-12-08T09:24:02.542Z,0.47
2022-12-08T09:28:04.452Z,0.54
2022-12-08T09:32:06.408Z,0.61
2022-12-08T09:36:10.318Z,0.71
2022-12-08T09:40:18.261Z,0.79
2022-12-08T09:44:54.811Z,0.83
2022-12-08T09:48:58.777Z,0.89
2022-12-08T09:53:03.689Z,0.99
2022-12-08T09:57:13.649Z,1.11
2022-12-08T10:01:16.245Z,1.24
2022-12-08T10:05:18.491Z,1.35
2022-12-08T10:09:29.755Z,1.40
2022-12-08T10:13:56.633Z,1.39
2022-12-08T10:18:03.075Z,1.35
2022-12-08T10:22:15.824Z,1.36
2022-12-08T10:26:20.886Z,1.38
2022-12-08T10:30:23.144Z,1.38
2022-12-08T10:34:25.707Z,1.35
2022-12-08T10:38:35.552Z,1.28
2022-12-08T10:42:45.713Z,1.23
2022-12-08T10:46:47.759Z,1.19
2022-12-08T10:50:50.402Z,1.23
2022-12-08T10:54:54.281Z,1.30
2022-12-08T10:59:15.832Z,1.38
2022-12-08T11:03:30.833Z,1.46
2022-12-08T11:07:33.508Z,1.51
2022-12-08T11:11:44.540Z,1.58
2022-12-08T11:15:46.763Z,1.68
2022-12-08T11:20:02.678Z,1.79
2022-12-08T11:24:14.164Z,1.93
2022-12-08T11:28:22.830Z,2.03
2022-12-08T11:32:25.042Z,2.14
2022-12-08T11:36:30.259Z,2.26
2022-12-08T11:40:37.337Z,2.40
2022-12-08T11:44:50.252Z,2.50
2022-12-08T11:49:06.928Z,2.56
2022-12-08T11:53:43.041Z,2.58
2022-12-08T11:57:45.381Z,2.54
2022-12-08T12:01:47.562Z,2.49
2022-12-08T12:06:46.593Z,2.45
2022-12-08T12:11:36.311Z,2.40
2022-12-08T12:15:56.540Z,2.37
2022-12-08T12:20:05.313Z,2.32
2022-12-08T12:24:28.381Z,2.27
2022-12-08T12:28:45.891Z,2.22
2022-12-08T12:32:57.457Z,2.21
2022-12-08T12:37:10.072Z,2.18
2022-12-08T12:41:14.574Z,2.18
2022-12-08T12:45:16.468Z,2.21
2022-12-08T12:49:37.401Z,2.23
2022-12-08T12:53:39.284Z,2.24
2022-12-08T12:57:56.646Z,2.20
2022-12-08T13:01:58.802Z,2.17
2022-12-08T13:06:01.119Z,2.16
2022-12-08T13:10:15.318Z,2.18
2022-12-08T13:14:30.458Z,2.20
2022-12-08T13:18:40.071Z,2.17
2022-12-08T13:23:11.591Z,2.09
2022-12-08T13:27:16.442Z,2.00
2022-12-08T13:31:46.659Z,1.95
2022-12-08T13:36:05.943Z,1.94
2022-12-08T13:40:13.813Z,1.96
2022-12-08T13:45:18.565Z,1.98
2022-12-08T13:50:32.392Z,1.99
2022-12-08T13:54:24.806Z,1.96
2022-12-08T13:57:56.005Z,1.92
2022-12-08T14:02:03.994Z,1.89
2022-12-08T14:06:14.594Z,1.89
2022-12-08T14:10:24.378Z,1.93
2022-12-08T14:15:02.592Z,1.95
2022-12-08T14:18:53.781Z,1.95
2022-12-08T14:22:56.988Z,1.94
2022-12-08T14:27:14.975Z,1.91
2022-12-08T14:31:17.313Z,1.87
2022-12-08T14:35:26.397Z,1.84
2022-12-08T14:39:28.329Z,1.83
2022-12-08T14:43:31.403Z,1.81
2022-12-08T14:47:34.207Z,1.77
2022-12-08T14:51:36.468Z,1.72
2022-12-08T14:55:39.369Z,1.69
2022-12-08T14:59:42.980Z,1.65
2022-12-08T15:03:50.616Z,1.63
2022-12-08T15:08:02.378Z,1.60
2022-12-08T15:12:13.397Z,1.57
2022-12-08T15:16:43.391Z,1.51
2022-12-08T15:20:53.534Z,1.39
2022-12-08T15:24:56.728Z,1.32
2022-12-08T15:29:10.666Z,1.26
2022-12-08T15:33:12.818Z,1.21
2022-12-08T15:37:23.482Z,1.13
2022-12-08T15:41:25.488Z,1.06
2022-12-08T15:45:30.901Z,1.00
2022-12-08T15:49:32.834Z,0.98
2022-12-08T15:53:34.738Z,0.99
2022-12-08T15:58:17.423Z,1.00
2022-12-08T16:01:59.009Z,0.98
2022-12-08T16:06:50.951Z,0.95
2022-12-08T16:10:26.409Z,0.92
2022-12-08T16:18:50.797Z,0.97
2022-12-08T16:23:03.197Z,1.01
2022-12-08T16:28:00.184Z,1.02
2022-12-08T16:31:54.847Z,1.01
2022-12-08T16:35:56.894Z,0.98
2022-12-08T16:39:59.138Z,0.98
2022-12-08T16:44:03.153Z,0.99
2022-12-08T16:48:05.199Z,1.00
2022-12-08T16:52:07.216Z,1.02
2022-12-08T16:56:13.662Z,1.01
2022-12-08T17:00:20.155Z,0.99
2022-12-08T17:04:31.505Z,0.98
2022-12-08T17:08:34.196Z,0.99
2022-12-08T17:12:36.455Z,1.00
2022-12-08T17:16:39.028Z,1.01
2022-12-08T17:20:41.208Z,0.99
2022-12-08T17:24:43.199Z,0.96
2022-12-08T17:29:00.196Z,0.97
2022-12-08T17:33:03.318Z,0.99
2022-12-08T17:37:05.554Z,0.99
2022-12-08T17:41:09.955Z,0.97
2022-12-08T17:45:12.029Z,0.93
2022-12-08T17:49:22.910Z,0.92
2022-12-08T17:53:24.941Z,0.93
2022-12-08T17:57:27.153Z,0.95
2022-12-08T18:01:29.310Z,0.95
2022-12-08T18:05:31.433Z,0.92
2022-12-08T18:09:33.723Z,0.90
2022-12-08T18:13:35.860Z,0.90
2022-12-08T18:17:37.741Z,0.91
2022-12-08T18:21:40.496Z,0.93
2022-12-08T18:25:42.605Z,0.93
2022-12-08T18:29:44.683Z,0.92
2022-12-08T18:33:48.106Z,0.93
2022-12-08T18:37:50.009Z,0.97
2022-12-08T18:41:52.923Z,1.02
2022-12-08T18:46:04.616Z,1.04
2022-12-08T18:50:09.329Z,1.05
2022-12-08T18:54:13.241Z,1.07
2022-12-08T18:58:15.344Z,1.11
2022-12-08T19:02:18.017Z,1.13
2022-12-08T19:06:20.360Z,1.15
2022-12-08T19:10:22.437Z,1.16
2022-12-08T19:14:28.156Z,1.16
2022-12-08T19:18:30.603Z,1.16
2022-12-08T19:22:32.579Z,1.18
2022-12-08T19:26:34.598Z,1.20
2022-12-08T19:30:36.592Z,1.21
2022-12-08T19:34:38.547Z,1.18
2022-12-08T19:38:59.059Z,1.12
2022-12-08T19:43:19.624Z,1.11
2022-12-08T19:47:26.610Z,1.11
2022-12-08T19:51:28.646Z,1.13
2022-12-08T19:55:31.103Z,1.11
2022-12-08T19:59:33.056Z,1.07
2022-12-08T20:03:34.992Z,1.06
2022-12-08T20:07:37.115Z,1.07
2022-12-08T20:11:39.387Z,1.08
2022-12-08T20:15:42.193Z,1.09
2022-12-08T20:19:44.251Z,1.09
2022-12-08T20:23:49.250Z,1.06
2022-12-08T20:27:51.174Z,1.04
2022-12-08T20:31:53.271Z,1.05
2022-12-08T20:36:05.221Z,1.07
2022-12-08T20:40:08.146Z,1.10
2022-12-08T20:44:11.481Z,1.10
2022-12-08T20:48:13.542Z,1.08
2022-12-08T20:52:15.545Z,1.07
2022-12-08T20:56:20.941Z,1.08
2022-12-08T21:00:25.557Z,1.11
2022-12-08T21:04:27.904Z,1.12
2022-12-08T21:08:30.365Z,1.11
2022-12-08T21:12:33.087Z,1.08
2022-12-08T21:16:36.020Z,1.06
2022-12-08T21:20:38.260Z,1.07
2022-12-08T21:24:40.371Z,1.08
2022-12-08T21:28:43.054Z,1.09
2022-12-08T21:32:45.395Z,1.07
2022-12-08T21:36:47.582Z,1.05
2022-12-08T21:40:49.502Z,1.00
2022-12-08T21:44:51.560Z,0.97
2022-12-08T21:48:53.763Z,0.98
2022-12-08T21:52:55.916Z,1.00
2022-12-08T21:56:59.368Z,1.02
2022-12-08T22:01:06.757Z,1.00
2022-12-08T22:05:09.322Z,0.94
2022-12-08T22:09:12.988Z,0.88
2022-12-08T22:13:15.459Z,0.83
2022-12-08T22:17:18.138Z,0.82
2022-12-08T22:21:20.324Z,0.81
2022-12-08T22:25:22.330Z,0.79
2022-12-08T22:29:24.530Z,0.73
2022-12-08T22:33:29.471Z,0.67
2022-12-08T22:37:31.635Z,0.63
2022-12-08T22:41:33.942Z,0.60
2022-12-08T22:45:36.274Z,0.60
2022-12-08T22:49:38.377Z,0.62
2022-12-08T22:53:41.225Z,0.61
2022-12-08T22:57:43.209Z,0.57
2022-12-08T23:01:45.361Z,0.53
2022-12-08T23:05:47.643Z,0.52
2022-12-08T23:09:50.139Z,0.53
2022-12-08T23:13:52.226Z,0.55
2022-12-08T23:17:54.477Z,0.55
2022-12-08T23:21:56.566Z,0.54
2022-12-08T23:25:58.820Z,0.56
2022-12-08T23:30:01.300Z,0.59
2022-12-08T23:34:04.001Z,0.64
2022-12-08T23:38:06.235Z,0.69
2022-12-08T23:42:08.460Z,0.73
2022-12-08T23:46:11.025Z,0.75
2022-12-08T23:50:13.227Z,0.73
2022-12-08T23:54:15.592Z,0.70
2022-12-08T23:58:17.818Z,0.73
